Back to Top

Language: 

My Weather Underground Personal Weather Station Historical Data with Graphs...

Delerius Weather Station Historical Data
 
Daily Summary for July 20, 2018 Units:  Metric    English   Both
« Previous Day
Next Day »
Daily Weekly Monthly Yearly Custom
  Current: High: Low: Average:
Temperature: 15.7 °C 15.7 °C 10.4 °C 12.1 °C
Dew Point: 9.6 °C 9.8 °C 7.4 °C 8.1 °C
Humidity: 67 % 84 % 66 % 77 %
Wind Speed: 0 km/h 3.2 km/h 0 km/h 0.2 km/h
Wind Gust: 0 km/h 6.4 km/h - -
Wind:Calm - - WNW
Pressure: 1014.8 hPa 1016.5 hPa 1014.8 hPa -
Precipitation: 0 mm      
Historical Graphs
 
 
Tabular Data for July 20, 2018
Time Temperature Dew Point Pressure Wind Wind Speed Wind Gust Humidity Rainfall Rate (Hourly) solar Conditions
00:04 14.7 °C 8.4 °C 1016.5 hPa Calm     66 % 0 mm 0.00 W/m2
00:09 14.6 °C 8.3 °C 1016.5 hPa WNW 1.6 km/h 3.2 km/h 66 % 0 mm 0.00 W/m2
00:14 14.5 °C 8.4 °C 1016.5 hPa Calm   1.6 km/h 67 % 0 mm 0.00 W/m2
00:19 14.4 °C 8.3 °C 1016.5 hPa Calm     67 % 0 mm 0.00 W/m2
00:24 14.3 °C 8.3 °C 1016.5 hPa Calm     67 % 0 mm 0.00 W/m2
00:29 14.2 °C 8.4 °C 1016.5 hPa Calm     68 % 0 mm 0.00 W/m2
00:34 14.1 °C 8.3 °C 1016.5 hPa Calm     68 % 0 mm 0.00 W/m2
00:39 13.9 °C 8.3 °C 1016.5 hPa Calm     69 % 0 mm 0.00 W/m2
00:44 13.8 °C 8.2 °C 1016.5 hPa Calm     69 % 0 mm 0.00 W/m2
00:49 13.7 °C 8.3 °C 1016.5 hPa Calm     70 % 0 mm 0.00 W/m2
00:54 13.7 °C 8.3 °C 1016.5 hPa Calm     70 % 0 mm 0.00 W/m2
00:59 13.6 °C 8.2 °C 1016.5 hPa Calm   3.2 km/h 70 % 0 mm 0.00 W/m2
01:04 13.6 °C 8.2 °C 1016.5 hPa WNW 1.6 km/h 4.8 km/h 70 % 0 mm 0.00 W/m2
01:09 13.5 °C 8.1 °C 1016.5 hPa WNW 1.6 km/h 6.4 km/h 70 % 0 mm 0.00 W/m2
01:14 13.5 °C 8.1 °C 1016.5 hPa Calm     70 % 0 mm 0.00 W/m2
01:19 13.5 °C 8.1 °C 1016.5 hPa WNW 1.6 km/h 6.4 km/h 70 % 0 mm 0.00 W/m2
01:24 13.4 °C 8.2 °C 1016.5 hPa Calm   3.2 km/h 71 % 0 mm 0.00 W/m2
01:29 13.4 °C 8.1 °C 1016.5 hPa Calm   1.6 km/h 70 % 0 mm 0.00 W/m2
01:34 13.3 °C 8.2 °C 1016.5 hPa Calm     71 % 0 mm 0.00 W/m2
01:39 13.2 °C 8.1 °C 1016.5 hPa Calm   1.6 km/h 71 % 0 mm 0.00 W/m2
01:44 13.1 °C 8.2 °C 1016.5 hPa Calm     72 % 0 mm 0.00 W/m2
01:49 13 °C 8.1 °C 1016.5 hPa Calm     72 % 0 mm 0.00 W/m2
01:54 12.9 °C 8.2 °C 1016.5 hPa Calm     73 % 0 mm 0.00 W/m2
01:59 12.8 °C 8.1 °C 1016.1 hPa Calm     73 % 0 mm 0.00 W/m2
02:04 12.7 °C 8 °C 1016.1 hPa Calm     73 % 0 mm 0.00 W/m2
02:09 12.6 °C 7.9 °C 1016.1 hPa Calm     73 % 0 mm 0.00 W/m2
02:14 12.4 °C 7.9 °C 1016.1 hPa Calm     74 % 0 mm 0.00 W/m2
02:19 12.3 °C 7.8 °C 1016.1 hPa Calm     74 % 0 mm 0.00 W/m2
02:24 12.2 °C 7.9 °C 1016.1 hPa Calm     75 % 0 mm 0.00 W/m2
02:29 12.1 °C 7.8 °C 1016.1 hPa Calm     75 % 0 mm 0.00 W/m2
02:34 12.1 °C 8 °C 1016.1 hPa Calm   1.6 km/h 76 % 0 mm 0.00 W/m2
02:39 11.9 °C 7.8 °C 1016.1 hPa Calm     76 % 0 mm 0.00 W/m2
02:44 11.9 °C 8 °C 1016.1 hPa Calm     77 % 0 mm 0.00 W/m2
02:49 11.8 °C 7.9 °C 1016.1 hPa Calm     77 % 0 mm 0.00 W/m2
02:54 11.7 °C 7.8 °C 1015.8 hPa Calm     77 % 0 mm 0.00 W/m2
02:59 11.6 °C 7.7 °C 1015.8 hPa Calm     77 % 0 mm 0.00 W/m2
03:04 11.5 °C 7.8 °C 1015.8 hPa Calm     78 % 0 mm 0.00 W/m2
03:09 11.4 °C 7.7 °C 1015.8 hPa Calm     78 % 0 mm 0.00 W/m2
03:14 11.4 °C 7.7 °C 1015.8 hPa Calm     78 % 0 mm 0.00 W/m2
03:19 11.3 °C 7.8 °C 1015.8 hPa Calm     79 % 0 mm 0.00 W/m2
03:24 11.3 °C 7.8 °C 1015.8 hPa Calm     79 % 0 mm 0.00 W/m2
03:29 11.2 °C 7.7 °C 1015.8 hPa Calm     79 % 0 mm 0.00 W/m2
03:34 11.1 °C 7.6 °C 1015.8 hPa Calm   3.2 km/h 79 % 0 mm 0.00 W/m2
03:39 11.1 °C 7.8 °C 1015.8 hPa Calm     80 % 0 mm 0.00 W/m2
03:44 11.1 °C 7.8 °C 1015.8 hPa Calm     80 % 0 mm 0.00 W/m2
03:49 11.1 °C 7.8 °C 1015.8 hPa Calm     80 % 0 mm 0.00 W/m2
03:54 11.1 °C 7.8 °C 1015.8 hPa Calm     80 % 0 mm 0.00 W/m2
03:59 11.1 °C 7.8 °C 1015.8 hPa Calm     80 % 0 mm 0.00 W/m2
04:04 11 °C 7.7 °C 1015.8 hPa Calm     80 % 0 mm 0.00 W/m2
04:09 11 °C 7.7 °C 1015.8 hPa Calm   1.6 km/h 80 % 0 mm 0.00 W/m2
04:14 10.9 °C 7.6 °C 1015.8 hPa Calm     80 % 0 mm 0.00 W/m2
04:19 10.9 °C 7.6 °C 1015.5 hPa Calm     80 % 0 mm 0.00 W/m2
04:24 10.8 °C 7.5 °C 1015.5 hPa Calm     80 % 0 mm 0.00 W/m2
04:29 10.8 °C 7.5 °C 1015.5 hPa Calm     80 % 0 mm 0.00 W/m2
04:34 10.7 °C 7.6 °C 1015.5 hPa Calm     81 % 0 mm 0.00 W/m2
04:39 10.7 °C 7.6 °C 1015.5 hPa Calm     81 % 0 mm 0.00 W/m2
04:44 10.7 °C 7.6 °C 1015.5 hPa Calm     81 % 0 mm 0.00 W/m2
04:49 10.7 °C 7.6 °C 1015.5 hPa Calm     81 % 0 mm 0.00 W/m2
04:54 10.6 °C 7.5 °C 1015.5 hPa Calm     81 % 0 mm 0.00 W/m2
04:59 10.6 °C 7.7 °C 1015.5 hPa Calm     82 % 0 mm 0.00 W/m2
05:04 10.6 °C 7.7 °C 1015.5 hPa Calm     82 % 0 mm 5.00 W/m2
05:09 10.6 °C 7.7 °C 1015.5 hPa Calm   3.2 km/h 82 % 0 mm 7.00 W/m2
05:14 10.5 °C 7.6 °C 1015.5 hPa WNW 3.2 km/h 6.4 km/h 82 % 0 mm 9.00 W/m2
05:19 10.5 °C 7.6 °C 1015.5 hPa Calm     82 % 0 mm 11.00 W/m2
05:24 10.6 °C 7.7 °C 1015.5 hPa Calm     82 % 0 mm 12.00 W/m2
05:29 10.5 °C 7.6 °C 1015.1 hPa WNW 1.6 km/h 4.8 km/h 82 % 0 mm 16.00 W/m2
05:34 10.4 °C 7.4 °C 1015.1 hPa Calm     82 % 0 mm 18.00 W/m2
05:39 10.5 °C 7.7 °C 1015.1 hPa Calm     83 % 0 mm 19.00 W/m2
05:44 10.6 °C 7.7 °C 1015.1 hPa Calm     82 % 0 mm 23.00 W/m2
05:49 10.6 °C 7.7 °C 1015.1 hPa Calm     82 % 0 mm 25.00 W/m2
05:54 10.6 °C 7.7 °C 1015.1 hPa Calm     82 % 0 mm 26.00 W/m2
05:59 10.6 °C 7.8 °C 1015.1 hPa Calm     83 % 0 mm 30.00 W/m2
06:04 10.6 °C 7.8 °C 1015.1 hPa Calm   1.6 km/h 83 % 0 mm 33.00 W/m2
06:09 10.6 °C 7.8 °C 1015.1 hPa Calm     83 % 0 mm 47.00 W/m2
06:14 10.6 °C 7.8 °C 1015.1 hPa Calm     83 % 0 mm 76.00 W/m2
06:19 10.7 °C 7.9 °C 1015.1 hPa Calm     83 % 0 mm 88.00 W/m2
06:24 10.9 °C 8.3 °C 1015.1 hPa Calm     84 % 0 mm 98.00 W/m2
06:29 11.1 °C 8.3 °C 1015.1 hPa Calm     83 % 0 mm 44.00 W/m2
06:34 11.3 °C 8.3 °C 1015.1 hPa Calm     82 % 0 mm 69.00 W/m2
06:39 11.5 °C 8.6 °C 1015.1 hPa Calm     82 % 0 mm 51.00 W/m2
06:44 11.8 °C 8.7 °C 1015.1 hPa Calm     81 % 0 mm 51.00 W/m2
06:49 12.1 °C 8.8 °C 1015.1 hPa Calm     80 % 0 mm 53.00 W/m2
06:54 12.3 °C 8.9 °C 1015.1 hPa Calm     80 % 0 mm 62.00 W/m2
06:59 12.4 °C 8.8 °C 1015.1 hPa Calm     79 % 0 mm 58.00 W/m2
07:04 12.7 °C 8.9 °C 1014.8 hPa Calm     78 % 0 mm 83.00 W/m2
07:09 12.9 °C 8.9 °C 1014.8 hPa Calm     77 % 0 mm 62.00 W/m2
07:14 13.1 °C 9.2 °C 1014.8 hPa Calm     77 % 0 mm 62.00 W/m2
07:19 13.3 °C 9.2 °C 1014.8 hPa Calm     76 % 0 mm 93.00 W/m2
07:24 13.7 °C 9.2 °C 1014.8 hPa Calm     74 % 0 mm 237.00 W/m2
07:29 14.1 °C 9.3 °C 1014.8 hPa Calm     73 % 0 mm 251.00 W/m2
07:34 14.7 °C 9.7 °C 1014.8 hPa Calm     72 % 0 mm 265.00 W/m2
07:39 15.2 °C 9.8 °C 1014.8 hPa Calm     70 % 0 mm 278.00 W/m2
07:44 15.7 °C 9.6 °C 1014.8 hPa Calm     67 % 0 mm 299.00 W/m2
Delerius-Weather
Compliments of Weather Underground - 1.25 mb

Data updates at regular intervals.